< < Back
Terminal Aerodrome Forecast


Current Version              Previous Versions:   1  2  3  4  5  6  7  8  9  

Terminal Aerodrome Forecast

759
FTUS42 KJAX 151700
TAFSSI
TAF
KSSI 151736Z 1518/1618 09008KT P6SM VCTS SCT020CB
     FM152000 14009KT P6SM SKC
      TEMPO 1523/1602 VRB15G25KT 2SM TSRA BKN025CB
     FM160300 19005KT P6SM FEW020 SCT100 BKN250
     FM161500 27005KT P6SM SCT020 SCT250=

Latest METAR

989
SAUS70 KWBC 161300 RRC
MTRSSI
METAR KSSI 161253Z AUTO 27007KT 10SM BKN008 24/23 A3007 RMK AO2 SLP181
T02440228


USA.gov is the U.S. government's official web portal to all federal, state and local government web resources and services.